createdAt,value
2018-07-03T00:02:25.028Z,21.73
2018-07-03T00:04:52.517Z,21.77
2018-07-03T00:07:20.072Z,21.74
2018-07-03T00:09:47.709Z,21.69
2018-07-03T00:12:15.384Z,21.76
2018-07-03T00:14:42.961Z,21.78
2018-07-03T00:17:15.903Z,21.70
2018-07-03T00:19:44.720Z,21.66
2018-07-03T00:22:12.189Z,21.75
2018-07-03T00:24:39.845Z,21.72
2018-07-03T00:27:07.566Z,21.72
2018-07-03T00:29:35.083Z,21.71
2018-07-03T00:32:02.243Z,21.68
2018-07-03T00:34:29.020Z,21.66
2018-07-03T00:36:56.460Z,21.71
2018-07-03T00:39:23.137Z,21.76
2018-07-03T00:41:51.081Z,21.81
2018-07-03T00:44:17.741Z,21.70
2018-07-03T00:46:44.389Z,21.70
2018-07-03T00:49:11.053Z,21.68
2018-07-03T00:51:37.708Z,21.69
2018-07-03T00:54:04.372Z,21.70
2018-07-03T00:56:31.474Z,21.70
2018-07-03T00:58:58.127Z,21.71
2018-07-03T01:01:24.757Z,21.78
2018-07-03T01:03:51.391Z,21.79
2018-07-03T01:06:18.016Z,21.70
2018-07-03T01:08:44.776Z,21.71
2018-07-03T01:11:11.413Z,21.71
2018-07-03T01:13:38.058Z,21.68
2018-07-03T01:16:04.692Z,21.66
2018-07-03T01:18:32.361Z,21.62
2018-07-03T01:21:01.084Z,21.63
2018-07-03T01:23:27.761Z,21.57
2018-07-03T01:25:55.205Z,21.63
2018-07-03T01:28:21.881Z,21.59
2018-07-03T01:30:48.535Z,21.62
2018-07-03T01:33:15.180Z,21.62
2018-07-03T01:35:41.837Z,21.55
2018-07-03T01:38:08.492Z,21.60
2018-07-03T01:40:35.180Z,21.61
2018-07-03T01:43:02.968Z,21.55
2018-07-03T01:45:31.036Z,21.60
2018-07-03T01:47:57.681Z,21.56
2018-07-03T01:50:24.356Z,21.57
2018-07-03T01:52:51.212Z,21.54
2018-07-03T01:55:17.888Z,21.54
2018-07-03T01:57:45.425Z,21.60
2018-07-03T02:00:12.095Z,21.63
2018-07-03T02:02:38.752Z,21.53
2018-07-03T02:05:05.425Z,21.53
2018-07-03T02:07:32.094Z,21.58
2018-07-03T02:09:59.862Z,21.62
2018-07-03T02:12:26.493Z,21.57
2018-07-03T02:14:53.181Z,21.55
2018-07-03T02:17:19.820Z,21.59
2018-07-03T02:19:46.482Z,21.55
2018-07-03T02:22:13.264Z,21.54
2018-07-03T02:24:39.924Z,21.59
2018-07-03T02:27:06.701Z,21.57
2018-07-03T02:29:33.344Z,21.50
2018-07-03T02:32:01.392Z,21.50
2018-07-03T02:34:28.235Z,21.52
2018-07-03T02:36:55.069Z,21.49
2018-07-03T02:39:21.922Z,21.54
2018-07-03T02:41:48.765Z,21.50
2018-07-03T02:44:15.608Z,21.56
2018-07-03T02:46:42.513Z,21.59
2018-07-03T02:49:09.365Z,21.52
2018-07-03T02:51:36.249Z,21.54
2018-07-03T02:54:03.093Z,21.56
2018-07-03T02:56:31.622Z,21.46
2018-07-03T02:58:58.464Z,21.44
2018-07-03T03:01:25.319Z,21.50
2018-07-03T03:03:52.143Z,21.53
2018-07-03T03:06:18.973Z,21.55
2018-07-03T03:08:45.814Z,21.49
2018-07-03T03:11:12.641Z,21.51
2018-07-03T03:13:39.529Z,21.52
2018-07-03T03:16:06.365Z,21.52
2018-07-03T03:18:33.193Z,21.53
2018-07-03T03:21:01.649Z,21.51
2018-07-03T03:23:28.480Z,21.46
2018-07-03T03:25:55.399Z,21.49
2018-07-03T03:28:22.271Z,21.53
2018-07-03T03:30:49.138Z,21.51
2018-07-03T03:33:15.972Z,21.50
2018-07-03T03:35:42.956Z,21.46
2018-07-03T03:38:09.798Z,21.48
2018-07-03T03:40:36.645Z,21.48
2018-07-03T03:43:03.540Z,21.45
2018-07-03T03:45:32.168Z,21.51
2018-07-03T03:48:00.236Z,21.44
2018-07-03T03:50:27.065Z,21.44
2018-07-03T03:52:53.913Z,21.51
2018-07-03T03:55:20.741Z,21.49
2018-07-03T03:57:47.579Z,21.48
2018-07-03T04:00:14.410Z,21.47
2018-07-03T04:02:41.241Z,21.51
2018-07-03T04:05:08.162Z,21.48
2018-07-03T04:07:35.118Z,21.53
2018-07-03T04:10:02.699Z,21.57
2018-07-03T04:12:30.749Z,21.51
2018-07-03T04:14:57.648Z,21.52
2018-07-03T04:17:24.477Z,21.46
2018-07-03T04:19:51.325Z,21.51
2018-07-03T04:22:18.304Z,21.40
2018-07-03T04:24:44.957Z,21.48
2018-07-03T04:27:11.613Z,21.50
2018-07-03T04:29:38.484Z,21.58
2018-07-03T04:32:05.132Z,21.61
2018-07-03T04:34:32.848Z,21.53
2018-07-03T04:37:01.329Z,21.47
2018-07-03T04:39:27.977Z,21.46
2018-07-03T04:41:54.649Z,21.53
2018-07-03T04:44:21.290Z,21.53
2018-07-03T04:46:48.141Z,21.56
2018-07-03T04:49:14.828Z,21.51
2018-07-03T04:51:41.699Z,21.52
2018-07-03T04:54:08.358Z,21.58
2018-07-03T04:56:35.017Z,21.57
2018-07-03T04:59:02.728Z,21.58
2018-07-03T05:01:29.973Z,21.66
2018-07-03T05:03:56.620Z,21.62
2018-07-03T05:06:23.265Z,21.64
2018-07-03T05:08:49.929Z,21.67
2018-07-03T05:11:16.696Z,21.63
2018-07-03T05:13:43.335Z,21.67
2018-07-03T05:16:09.989Z,21.82
2018-07-03T05:18:36.657Z,21.68
2018-07-03T05:21:03.316Z,21.74
2018-07-03T05:23:32.689Z,21.81
2018-07-03T05:26:01.379Z,21.90
2018-07-03T05:28:29.231Z,22.09
2018-07-03T05:30:55.864Z,22.19
2018-07-03T05:33:22.506Z,22.21
2018-07-03T05:35:49.145Z,22.31
2018-07-03T05:38:15.789Z,22.33
2018-07-03T05:40:42.436Z,22.38
2018-07-03T05:43:09.176Z,22.32
2018-07-03T05:45:35.834Z,22.38
2018-07-03T05:48:02.556Z,22.37
2018-07-03T05:50:29.865Z,22.38
2018-07-03T05:52:56.516Z,22.37
2018-07-03T05:55:23.165Z,22.39
2018-07-03T05:57:49.812Z,22.40
2018-07-03T06:00:16.480Z,22.37
2018-07-03T06:02:43.134Z,22.43
2018-07-03T06:05:09.781Z,22.38
2018-07-03T06:07:36.417Z,22.38
2018-07-03T06:10:03.560Z,22.38
2018-07-03T06:12:31.852Z,22.39
2018-07-03T06:14:58.553Z,22.40
2018-07-03T06:17:25.194Z,22.39
2018-07-03T06:19:51.853Z,22.40
2018-07-03T06:22:18.505Z,22.42
2018-07-03T06:24:45.200Z,22.39
2018-07-03T06:27:11.859Z,22.38
2018-07-03T06:29:38.522Z,22.37
2018-07-03T06:32:05.192Z,22.39
2018-07-03T06:34:32.933Z,22.40
2018-07-03T06:37:00.857Z,22.41
2018-07-03T06:39:27.528Z,22.36
2018-07-03T06:41:54.162Z,22.37
2018-07-03T06:44:20.820Z,22.40
2018-07-03T06:46:47.460Z,22.37
2018-07-03T06:49:14.134Z,22.41
2018-07-03T06:51:40.857Z,22.40
2018-07-03T06:54:07.667Z,22.40
2018-07-03T06:56:34.316Z,22.41
2018-07-03T06:59:01.991Z,22.38
2018-07-03T07:01:28.664Z,22.39
2018-07-03T07:03:55.328Z,22.39
2018-07-03T07:06:21.985Z,22.38
2018-07-03T07:08:48.743Z,22.40
2018-07-03T07:11:15.446Z,22.39
2018-07-03T07:13:42.213Z,22.44
2018-07-03T07:16:08.864Z,22.37
2018-07-03T07:18:35.557Z,22.41
2018-07-03T07:21:02.205Z,22.40
2018-07-03T07:23:29.479Z,22.39
2018-07-03T07:25:56.136Z,22.40
2018-07-03T07:28:22.824Z,22.41
2018-07-03T07:30:49.482Z,22.39
2018-07-03T07:33:16.117Z,22.43
2018-07-03T07:35:42.800Z,22.43
2018-07-03T07:38:09.475Z,22.39
2018-07-03T07:40:36.146Z,22.37
2018-07-03T07:43:03.693Z,22.41
2018-07-03T07:45:31.608Z,22.40
2018-07-03T07:47:58.275Z,22.38
2018-07-03T07:50:24.945Z,22.41
2018-07-03T07:52:51.601Z,22.39
2018-07-03T07:55:19.096Z,22.39
2018-07-03T07:57:45.807Z,22.41
2018-07-03T08:00:13.313Z,22.43
2018-07-03T08:02:40.010Z,22.41
2018-07-03T08:05:06.761Z,22.40
2018-07-03T08:07:33.409Z,22.39
2018-07-03T08:10:02.182Z,22.39
2018-07-03T08:12:31.649Z,22.39
2018-07-03T08:14:58.285Z,22.36
2018-07-03T08:17:24.925Z,22.33
2018-07-03T08:19:51.573Z,22.37
2018-07-03T08:22:18.199Z,22.38
2018-07-03T08:24:44.837Z,22.34
2018-07-03T08:27:11.485Z,22.37
2018-07-03T08:29:38.165Z,22.35
2018-07-03T08:32:04.997Z,22.37
2018-07-03T08:34:33.076Z,22.42
2018-07-03T08:37:01.606Z,22.37
2018-07-03T08:39:28.277Z,22.37
2018-07-03T08:41:54.924Z,22.36
2018-07-03T08:44:21.600Z,22.31
2018-07-03T08:46:48.279Z,22.32
2018-07-03T08:49:14.934Z,22.37
2018-07-03T08:51:41.645Z,22.35
2018-07-03T08:54:08.269Z,22.36
2018-07-03T08:56:34.909Z,22.35
2018-07-03T08:59:02.064Z,22.38
2018-07-03T09:01:28.742Z,22.37
2018-07-03T09:03:55.380Z,22.35
2018-07-03T09:06:22.038Z,22.32
2018-07-03T09:08:48.688Z,22.36
2018-07-03T09:11:15.341Z,22.36
2018-07-03T09:13:42.312Z,22.31
2018-07-03T09:16:08.972Z,22.36
2018-07-03T09:18:35.604Z,22.34
2018-07-03T09:21:02.258Z,22.33
2018-07-03T09:23:29.944Z,22.25
2018-07-03T09:25:56.576Z,22.33
2018-07-03T09:28:23.277Z,22.34
2018-07-03T09:30:49.924Z,22.31
2018-07-03T09:33:16.604Z,22.31
2018-07-03T09:35:43.250Z,22.28
2018-07-03T09:38:09.894Z,22.31
2018-07-03T09:40:36.885Z,22.20
2018-07-03T09:43:03.537Z,22.28
2018-07-03T09:45:31.271Z,22.28
2018-07-03T09:47:57.920Z,22.29
2018-07-03T09:50:24.971Z,22.33
2018-07-03T09:52:51.624Z,22.32
2018-07-03T09:55:18.298Z,22.27
2018-07-03T09:57:44.954Z,22.25
2018-07-03T10:00:11.637Z,22.30
2018-07-03T10:02:38.280Z,22.29
2018-07-03T10:05:04.941Z,22.28
2018-07-03T10:07:32.104Z,22.25
2018-07-03T10:09:58.753Z,22.26
2018-07-03T10:12:25.397Z,22.29
2018-07-03T10:14:52.069Z,22.27
2018-07-03T10:17:18.704Z,22.29
2018-07-03T10:19:45.384Z,22.26
2018-07-03T10:22:12.051Z,22.31
2018-07-03T10:24:38.749Z,22.31
2018-07-03T10:27:05.405Z,22.31
2018-07-03T10:29:32.050Z,22.27
2018-07-03T10:31:58.689Z,22.30
2018-07-03T10:34:25.344Z,22.32
2018-07-03T10:36:51.994Z,22.32
2018-07-03T10:39:18.648Z,22.35
2018-07-03T10:41:45.288Z,22.33
2018-07-03T10:44:11.936Z,22.30
2018-07-03T10:46:38.589Z,22.31
2018-07-03T10:49:05.246Z,22.27
2018-07-03T10:51:31.912Z,22.28
2018-07-03T10:53:58.573Z,22.24
2018-07-03T10:56:25.205Z,22.21
2018-07-03T10:58:51.955Z,22.23
2018-07-03T11:01:18.604Z,22.27
2018-07-03T11:03:45.251Z,22.32
2018-07-03T11:06:11.901Z,22.28
2018-07-03T11:08:38.537Z,22.21
2018-07-03T11:11:05.732Z,22.25
2018-07-03T11:13:32.845Z,22.23
2018-07-03T11:16:01.190Z,22.25
2018-07-03T11:18:28.009Z,22.21
2018-07-03T11:20:54.656Z,22.23
2018-07-03T11:23:21.344Z,22.18
2018-07-03T11:25:47.987Z,22.22
2018-07-03T11:28:14.628Z,22.26
2018-07-03T11:33:07.450Z,22.19
2018-07-03T11:38:01.338Z,22.29
2018-07-03T11:40:27.999Z,22.23
2018-07-03T11:42:54.712Z,22.22
2018-07-03T11:45:21.357Z,22.21
2018-07-03T11:47:48.102Z,22.23
2018-07-03T11:50:14.780Z,22.22
2018-07-03T11:52:42.388Z,22.19
2018-07-03T11:55:09.036Z,22.19
2018-07-03T11:57:36.629Z,22.24
2018-07-03T12:00:03.981Z,22.21
2018-07-03T12:04:58.532Z,22.19
2018-07-03T12:07:25.192Z,22.25
2018-07-03T12:09:51.829Z,22.27
2018-07-03T12:12:18.487Z,22.22
2018-07-03T12:14:45.169Z,22.20
2018-07-03T12:17:11.840Z,22.21
2018-07-03T12:19:38.529Z,22.21
2018-07-03T12:22:05.168Z,22.22
2018-07-03T12:26:57.964Z,22.23
2018-07-03T12:29:24.629Z,22.22
2018-07-03T12:31:51.275Z,22.15
2018-07-03T12:34:17.941Z,22.21
2018-07-03T12:36:45.475Z,22.18
2018-07-03T12:39:12.440Z,22.21
2018-07-03T12:41:39.177Z,22.19
2018-07-03T12:44:07.158Z,22.21
2018-07-03T12:46:33.805Z,22.23
2018-07-03T12:49:00.486Z,22.21
2018-07-03T12:51:27.148Z,22.21
2018-07-03T12:53:53.809Z,22.20
2018-07-03T12:56:20.472Z,22.17
2018-07-03T12:58:47.126Z,22.24
2018-07-03T13:01:13.790Z,22.24
2018-07-03T13:03:40.453Z,22.19
2018-07-03T13:06:07.982Z,22.17
2018-07-03T13:08:34.672Z,22.17
2018-07-03T13:11:01.320Z,22.19
2018-07-03T13:13:27.984Z,22.13
2018-07-03T13:15:54.721Z,22.18
2018-07-03T13:18:22.518Z,22.17
2018-07-03T13:20:50.206Z,22.16
2018-07-03T13:23:16.874Z,22.21
2018-07-03T13:25:43.539Z,22.18
2018-07-03T13:28:10.347Z,22.22
2018-07-03T13:30:37.840Z,22.22
2018-07-03T13:33:04.804Z,22.17
2018-07-03T13:35:31.965Z,22.18
2018-07-03T13:37:58.649Z,22.16
2018-07-03T13:40:25.404Z,22.16
2018-07-03T13:42:52.055Z,22.22
2018-07-03T13:45:18.770Z,22.24
2018-07-03T13:47:45.450Z,22.19
2018-07-03T13:50:12.132Z,22.18
2018-07-03T13:52:38.813Z,22.19
2018-07-03T13:55:05.560Z,22.19
2018-07-03T13:57:32.588Z,22.22
2018-07-03T13:59:59.929Z,22.21
2018-07-03T14:02:26.574Z,22.16
2018-07-03T14:04:53.244Z,22.15
2018-07-03T14:07:19.904Z,22.18
2018-07-03T14:09:46.593Z,22.19
2018-07-03T14:12:13.248Z,22.15
2018-07-03T14:14:39.896Z,22.19
2018-07-03T14:17:07.416Z,22.13
2018-07-03T14:19:34.816Z,22.15
2018-07-03T14:22:01.570Z,22.20
2018-07-03T14:24:28.194Z,22.18
2018-07-03T14:26:54.858Z,22.16
2018-07-03T14:29:21.518Z,22.20
2018-07-03T14:31:48.217Z,22.19
2018-07-03T14:34:14.869Z,22.20
2018-07-03T14:36:41.549Z,22.24
2018-07-03T14:39:08.914Z,22.21
2018-07-03T14:41:36.017Z,22.17
2018-07-03T14:44:05.012Z,22.19
2018-07-03T14:46:33.469Z,22.19
2018-07-03T14:49:01.726Z,22.20
2018-07-03T14:53:56.235Z,22.19
2018-07-03T14:56:23.002Z,22.25
2018-07-03T14:58:50.955Z,22.18
2018-07-03T15:01:18.468Z,22.17
2018-07-03T15:03:45.191Z,22.21
2018-07-03T15:06:11.842Z,22.22
2018-07-03T15:08:38.501Z,22.23
2018-07-03T15:11:05.337Z,22.18
2018-07-03T15:13:31.977Z,22.18
2018-07-03T15:15:58.739Z,22.19
2018-07-03T15:18:30.030Z,22.19
2018-07-03T15:20:56.722Z,22.18
2018-07-03T15:23:23.369Z,22.16
2018-07-03T15:25:50.123Z,22.18
2018-07-03T15:28:16.869Z,22.15
2018-07-03T15:33:11.378Z,22.19
2018-07-03T15:35:39.372Z,22.17
2018-07-03T15:38:07.113Z,22.20
2018-07-03T15:40:34.912Z,22.15
2018-07-03T15:43:01.622Z,22.15
2018-07-03T15:45:28.297Z,22.16
2018-07-03T15:47:55.020Z,22.15
2018-07-03T15:50:21.700Z,22.12
2018-07-03T15:52:48.372Z,22.13
2018-07-03T15:55:15.071Z,22.13
2018-07-03T15:57:41.780Z,22.14
2018-07-03T16:00:10.342Z,22.15
2018-07-03T16:02:37.032Z,22.11
2018-07-03T16:05:12.965Z,22.08
2018-07-03T16:07:46.945Z,22.05
2018-07-03T16:10:13.614Z,22.10
2018-07-03T16:12:40.381Z,22.13
2018-07-03T16:15:07.348Z,22.13
2018-07-03T16:17:36.006Z,22.14
2018-07-03T16:20:10.088Z,22.14
2018-07-03T16:22:36.854Z,22.11
2018-07-03T16:25:05.064Z,22.12
2018-07-03T16:27:31.660Z,22.12
2018-07-03T16:29:58.357Z,22.10
2018-07-03T16:32:25.022Z,22.13
2018-07-03T16:34:51.671Z,22.13
2018-07-03T16:37:18.368Z,22.11
2018-07-03T16:39:45.028Z,22.13
2018-07-03T16:42:11.672Z,22.14
2018-07-03T16:44:38.321Z,22.15
2018-07-03T16:47:04.988Z,22.18
2018-07-03T16:49:31.986Z,22.26
2018-07-03T16:51:58.672Z,22.38
2018-07-03T16:54:25.317Z,22.51
2018-07-03T16:56:52.219Z,22.63
2018-07-03T16:59:18.900Z,22.69
2018-07-03T17:01:45.569Z,22.69
2018-07-03T17:04:13.057Z,22.71
2018-07-03T17:06:39.736Z,22.72
2018-07-03T17:09:07.381Z,22.72
2018-07-03T17:11:35.403Z,22.72
2018-07-03T17:14:03.512Z,22.70
2018-07-03T17:16:31.218Z,22.70
2018-07-03T17:19:03.468Z,22.68
2018-07-03T17:21:30.138Z,22.65
2018-07-03T17:23:56.802Z,22.70
2018-07-03T17:26:23.495Z,22.73
2018-07-03T17:28:50.209Z,22.69
2018-07-03T17:31:16.884Z,22.70
2018-07-03T17:33:43.625Z,22.72
2018-07-03T17:36:10.974Z,22.71
2018-07-03T17:38:37.638Z,22.67
2018-07-03T17:41:09.940Z,22.69
2018-07-03T17:44:09.945Z,22.62
2018-07-03T17:46:47.915Z,22.43
2018-07-03T17:49:14.598Z,22.45
2018-07-03T17:51:41.297Z,22.60
2018-07-03T17:54:07.961Z,22.62
2018-07-03T17:56:34.766Z,22.65
2018-07-03T17:59:01.491Z,22.66
2018-07-03T18:01:28.317Z,22.64
2018-07-03T18:03:54.990Z,22.61
2018-07-03T18:06:21.756Z,22.60
2018-07-03T18:08:48.947Z,22.59
2018-07-03T18:11:15.649Z,22.61
2018-07-03T18:13:42.445Z,22.61
2018-07-03T18:16:09.148Z,22.59
2018-07-03T18:18:35.813Z,22.56
2018-07-03T18:21:03.139Z,22.53
2018-07-03T18:23:29.706Z,22.51
2018-07-03T18:25:56.419Z,22.53
2018-07-03T18:28:23.078Z,22.50
2018-07-03T18:30:49.856Z,22.49
2018-07-03T18:33:16.512Z,22.48
2018-07-03T18:35:43.238Z,22.47
2018-07-03T18:38:10.117Z,22.47
2018-07-03T18:40:36.874Z,22.46
2018-07-03T18:43:04.777Z,22.49
2018-07-03T18:45:31.550Z,22.47
2018-07-03T18:47:58.282Z,22.45
2018-07-03T18:50:25.220Z,22.45
2018-07-03T18:52:51.998Z,22.46
2018-07-03T18:55:18.779Z,22.44
2018-07-03T18:57:45.649Z,22.43
2018-07-03T19:00:12.553Z,22.41
2018-07-03T19:02:39.576Z,22.39
2018-07-03T19:05:07.637Z,22.40
2018-07-03T19:07:35.505Z,22.38
2018-07-03T19:10:03.870Z,22.39
2018-07-03T19:12:31.982Z,22.39
2018-07-03T19:14:58.969Z,22.37
2018-07-03T19:17:26.010Z,22.39
2018-07-03T19:19:52.964Z,22.39
2018-07-03T19:22:19.935Z,22.38
2018-07-03T19:24:46.891Z,22.39
2018-07-03T19:27:13.857Z,22.35
2018-07-03T19:29:40.831Z,22.40
2018-07-03T19:32:07.825Z,22.39
2018-07-03T19:34:34.787Z,22.38
2018-07-03T19:37:01.668Z,22.38
2018-07-03T19:39:30.524Z,22.38
2018-07-03T19:41:57.491Z,22.36
2018-07-03T19:44:24.411Z,22.36
2018-07-03T19:46:51.388Z,22.37
2018-07-03T19:49:18.287Z,22.35
2018-07-03T19:51:45.244Z,22.37
2018-07-03T19:54:12.249Z,22.36
2018-07-03T19:56:39.256Z,22.36
2018-07-03T19:59:06.116Z,22.35
2018-07-03T20:01:33.522Z,22.32
2018-07-03T20:04:01.121Z,22.33
2018-07-03T20:06:28.069Z,22.32
2018-07-03T20:08:55.157Z,22.34
2018-07-03T20:11:22.052Z,22.36
2018-07-03T20:13:48.982Z,22.34
2018-07-03T20:16:15.898Z,22.32
2018-07-03T20:18:42.954Z,22.32
2018-07-03T20:21:09.933Z,22.33
2018-07-03T20:23:36.811Z,22.31
2018-07-03T20:26:04.722Z,22.31
2018-07-03T20:28:31.737Z,22.33
2018-07-03T20:30:58.723Z,22.33
2018-07-03T20:33:25.523Z,22.32
2018-07-03T20:36:06.206Z,22.32
2018-07-03T20:38:41.226Z,22.32
2018-07-03T20:41:09.247Z,22.32
2018-07-03T20:43:46.140Z,22.31
2018-07-03T20:46:12.826Z,22.28
2018-07-03T20:48:39.798Z,22.27
2018-07-03T20:51:16.044Z,22.30
2018-07-03T20:53:42.765Z,22.28
2018-07-03T20:56:09.440Z,22.26
2018-07-03T20:58:36.294Z,22.27
2018-07-03T21:01:04.062Z,22.28
2018-07-03T21:03:31.649Z,22.27
2018-07-03T21:06:04.148Z,22.28
2018-07-03T21:08:30.782Z,22.27
2018-07-03T21:10:58.233Z,22.27
2018-07-03T21:13:25.108Z,22.26
2018-07-03T21:15:51.769Z,22.27
2018-07-03T21:18:18.412Z,22.26
2018-07-03T21:20:45.070Z,22.25
2018-07-03T21:23:11.741Z,22.24
2018-07-03T21:25:38.669Z,22.21
2018-07-03T21:30:31.554Z,22.28
2018-07-03T21:32:58.515Z,22.23
2018-07-03T21:35:30.861Z,22.23
2018-07-03T21:37:57.512Z,22.18
2018-07-03T21:40:24.409Z,22.22
2018-07-03T21:42:51.185Z,22.24
2018-07-03T21:45:17.863Z,22.26
2018-07-03T21:47:44.590Z,22.22
2018-07-03T21:52:37.437Z,22.22
2018-07-03T21:55:05.411Z,22.21
2018-07-03T21:57:32.138Z,22.21
2018-07-03T21:59:59.028Z,22.26
2018-07-03T22:02:25.682Z,22.18
2018-07-03T22:04:52.358Z,22.23
2018-07-03T22:07:19.025Z,22.20
2018-07-03T22:09:45.725Z,22.20
2018-07-03T22:12:12.394Z,22.23
2018-07-03T22:14:40.605Z,22.20
2018-07-03T22:17:07.805Z,22.20
2018-07-03T22:19:34.497Z,22.21
2018-07-03T22:22:01.177Z,22.16
2018-07-03T22:24:27.841Z,22.16
2018-07-03T22:26:54.497Z,22.13
2018-07-03T22:29:21.157Z,22.12
2018-07-03T22:31:47.806Z,22.16
2018-07-03T22:34:14.468Z,22.14
2018-07-03T22:36:41.134Z,22.13
2018-07-03T22:39:08.707Z,22.14
2018-07-03T22:41:35.301Z,22.18
2018-07-03T22:44:01.955Z,22.16
2018-07-03T22:46:28.706Z,22.20
2018-07-03T22:48:55.373Z,22.13
2018-07-03T22:51:22.078Z,22.17
2018-07-03T22:53:48.746Z,22.13
2018-07-03T22:56:15.550Z,22.13
2018-07-03T22:58:42.434Z,22.14
2018-07-03T23:01:09.118Z,22.16
2018-07-03T23:03:36.829Z,22.17
2018-07-03T23:06:04.444Z,22.14
2018-07-03T23:08:33.483Z,22.11
2018-07-03T23:11:01.101Z,22.08
2018-07-03T23:13:27.752Z,22.09
2018-07-03T23:15:54.436Z,22.08
2018-07-03T23:18:21.121Z,22.06
2018-07-03T23:20:47.826Z,22.04
2018-07-03T23:23:14.484Z,22.04
2018-07-03T23:25:41.139Z,22.05
2018-07-03T23:28:07.812Z,22.04
2018-07-03T23:30:34.491Z,22.09
2018-07-03T23:33:01.215Z,22.07
2018-07-03T23:35:27.866Z,22.06
2018-07-03T23:37:54.512Z,22.02
2018-07-03T23:40:21.164Z,22.00
2018-07-03T23:42:47.830Z,22.04
2018-07-03T23:45:14.480Z,22.00
2018-07-03T23:47:46.861Z,22.03
2018-07-03T23:50:19.125Z,21.95
2018-07-03T23:52:51.578Z,21.96
2018-07-03T23:55:23.864Z,21.88
2018-07-03T23:57:56.409Z,21.92
